Time;durP1;ratioP1;P1;durP2;ratioP2;P2;SDS_P1;SDS_P2;PMS_P1;PMS_P2;Temp;Humidity;BMP_temperature;BMP_pressure;BME280_temperature;BME280_humidity;BME280_pressure;Samples;Min_cycle;Max_cycle;Signal;HPM_P1;HPM_P2
2022/07/01 00:00:00;;;;;;;1.1;0.9;;;;;;;16.7;100.0;101230;;;;
2022/07/01 00:01:00;;;;;;;1.1;0.9;;;;;;;16.7;100.0;101230;;;;
2022/07/01 00:02:00;;;;;;;1.1;0.9;;;;;;;16.8;100.0;101230;;;;
2022/07/01 00:03:00;;;;;;;1.1;0.9;;;;;;;16.8;100.0;101230;;;;
2022/07/01 00:04:00;;;;;;;1.1;0.9;;;;;;;16.7;100.0;101240;;;;
2022/07/01 00:05:00;;;;;;;1.1;0.9;;;;;;;16.7;100.0;101240;;;;
2022/07/01 00:06:00;;;;;;;1.1;0.9;;;;;;;16.8;100.0;101240;;;;
2022/07/01 00:07:00;;;;;;;1.1;0.9;;;;;;;16.8;100.0;101240;;;;
2022/07/01 00:08:00;;;;;;;1.1;0.9;;;;;;;16.6;100.0;101240;;;;
2022/07/01 00:09:00;;;;;;;1.1;0.9;;;;;;;16.6;100.0;101240;;;;
2022/07/01 00:10:00;;;;;;;1.1;0.9;;;;;;;16.6;100.0;101240;;;;
2022/07/01 00:11:00;;;;;;;1.1;0.9;;;;;;;16.6;100.0;101240;;;;
2022/07/01 00:12:00;;;;;;;1.1;0.9;;;;;;;16.4;100.0;101230;;;;
2022/07/01 00:13:00;;;;;;;1.1;0.9;;;;;;;16.4;100.0;101230;;;;
2022/07/01 00:14:00;;;;;;;1.1;0.9;;;;;;;16.5;100.0;101230;;;;
2022/07/01 00:15:00;;;;;;;1.1;0.9;;;;;;;16.5;100.0;101230;;;;
2022/07/01 00:16:00;;;;;;;1.1;0.9;;;;;;;16.3;100.0;101230;;;;
2022/07/01 00:17:00;;;;;;;1.1;0.9;;;;;;;16.3;100.0;101230;;;;
2022/07/01 00:18:00;;;;;;;1.1;0.9;;;;;;;16.5;100.0;101230;;;;
2022/07/01 00:19:00;;;;;;;1.8;1.7;;;;;;;16.5;100.0;101230;;;;
2022/07/01 00:20:00;;;;;;;1.8;1.7;;;;;;;16.5;100.0;101240;;;;
2022/07/01 00:21:01;;;;;;;1.8;1.7;;;;;;;16.5;100.0;101240;;;;
2022/07/01 00:22:00;;;;;;;1.8;1.7;;;;;;;16.6;100.0;101240;;;;
2022/07/01 00:23:00;;;;;;;1.8;1.7;;;;;;;16.6;100.0;101240;;;;
2022/07/01 00:24:00;;;;;;;1.8;1.7;;;;;;;16.5;100.0;101240;;;;
2022/07/01 00:25:00;;;;;;;1.8;1.7;;;;;;;16.5;100.0;101240;;;;
2022/07/01 00:26:00;;;;;;;1.8;1.7;;;;;;;16.6;100.0;101230;;;;
2022/07/01 00:27:00;;;;;;;1.8;1.7;;;;;;;16.6;100.0;101230;;;;
2022/07/01 00:28:01;;;;;;;1.8;1.7;;;;;;;16.3;100.0;101230;;;;
2022/07/01 00:29:00;;;;;;;1.8;1.7;;;;;;;16.3;100.0;101230;;;;
2022/07/01 00:30:00;;;;;;;1.8;1.7;;;;;;;16.3;100.0;101230;;;;
2022/07/01 00:31:00;;;;;;;1.8;1.7;;;;;;;16.3;100.0;101230;;;;
2022/07/01 00:32:00;;;;;;;1.8;1.7;;;;;;;16.2;100.0;101220;;;;
2022/07/01 00:33:00;;;;;;;1.8;1.7;;;;;;;16.2;100.0;101220;;;;
2022/07/01 00:34:00;;;;;;;1.8;1.7;;;;;;;16.1;100.0;101220;;;;
2022/07/01 00:35:00;;;;;;;1.8;1.7;;;;;;;16.1;100.0;101220;;;;
2022/07/01 00:36:00;;;;;;;1.8;1.7;;;;;;;16.2;100.0;101230;;;;
2022/07/01 00:37:00;;;;;;;1.8;1.7;;;;;;;16.2;100.0;101230;;;;
2022/07/01 00:38:00;;;;;;;1.8;1.7;;;;;;;16.1;100.0;101230;;;;
2022/07/01 00:39:00;;;;;;;1.0;1.0;;;;;;;16.1;100.0;101230;;;;
2022/07/01 00:40:00;;;;;;;1.0;1.0;;;;;;;15.9;100.0;101230;;;;
2022/07/01 00:41:00;;;;;;;1.0;1.0;;;;;;;15.9;100.0;101230;;;;
2022/07/01 00:42:00;;;;;;;1.0;1.0;;;;;;;15.9;100.0;101220;;;;
2022/07/01 00:43:00;;;;;;;1.0;1.0;;;;;;;15.9;100.0;101220;;;;
2022/07/01 00:44:00;;;;;;;1.0;1.0;;;;;;;15.9;100.0;101220;;;;
2022/07/01 00:45:00;;;;;;;1.0;1.0;;;;;;;15.9;100.0;101220;;;;
2022/07/01 00:46:00;;;;;;;1.0;1.0;;;;;;;15.9;100.0;101220;;;;
2022/07/01 00:47:02;;;;;;;1.0;1.0;;;;;;;15.9;100.0;101220;;;;
2022/07/01 00:48:00;;;;;;;1.0;1.0;;;;;;;16.0;100.0;101220;;;;
2022/07/01 00:49:01;;;;;;;1.0;1.0;;;;;;;16.0;100.0;101220;;;;
2022/07/01 00:50:00;;;;;;;1.0;1.0;;;;;;;16.0;100.0;101220;;;;
2022/07/01 00:51:00;;;;;;;1.0;1.0;;;;;;;16.0;100.0;101220;;;;
2022/07/01 00:52:00;;;;;;;1.0;1.0;;;;;;;15.8;100.0;101220;;;;
2022/07/01 00:53:00;;;;;;;1.0;1.0;;;;;;;15.8;100.0;101220;;;;
2022/07/01 00:54:01;;;;;;;1.0;1.0;;;;;;;15.7;100.0;101220;;;;
2022/07/01 00:55:02;;;;;;;1.0;1.0;;;;;;;15.7;100.0;101220;;;;
2022/07/01 00:56:00;;;;;;;1.0;1.0;;;;;;;15.8;100.0;101220;;;;
2022/07/01 00:57:04;;;;;;;1.0;1.0;;;;;;;15.8;100.0;101220;;;;
2022/07/01 00:58:00;;;;;;;1.0;1.0;;;;;;;15.8;100.0;101220;;;;
2022/07/01 00:59:00;;;;;;;0.8;0.8;;;;;;;15.8;100.0;101220;;;;
2022/07/01 01:00:03;;;;;;;0.8;0.8;;;;;;;15.9;100.0;101220;;;;
2022/07/01 01:01:00;;;;;;;0.8;0.8;;;;;;;15.9;100.0;101220;;;;
2022/07/01 01:02:00;;;;;;;0.8;0.8;;;;;;;16.0;100.0;101230;;;;
2022/07/01 01:03:00;;;;;;;0.8;0.8;;;;;;;16.0;100.0;101230;;;;
2022/07/01 01:04:01;;;;;;;0.8;0.8;;;;;;;15.9;100.0;101230;;;;
2022/07/01 01:05:00;;;;;;;0.8;0.8;;;;;;;15.9;100.0;101230;;;;
2022/07/01 01:06:00;;;;;;;0.8;0.8;;;;;;;15.7;100.0;101230;;;;
2022/07/01 01:07:01;;;;;;;0.8;0.8;;;;;;;15.7;100.0;101230;;;;
2022/07/01 01:08:00;;;;;;;0.8;0.8;;;;;;;15.6;100.0;101240;;;;
2022/07/01 01:09:00;;;;;;;0.8;0.8;;;;;;;15.6;100.0;101240;;;;
2022/07/01 01:10:01;;;;;;;0.8;0.8;;;;;;;15.8;100.0;101230;;;;
2022/07/01 01:11:00;;;;;;;0.8;0.8;;;;;;;15.8;100.0;101230;;;;
2022/07/01 01:12:01;;;;;;;0.8;0.8;;;;;;;15.8;100.0;101250;;;;
2022/07/01 01:13:00;;;;;;;0.8;0.8;;;;;;;15.8;100.0;101250;;;;
2022/07/01 01:14:00;;;;;;;0.8;0.8;;;;;;;15.9;100.0;101260;;;;
2022/07/01 01:15:00;;;;;;;0.8;0.8;;;;;;;15.9;100.0;101260;;;;
2022/07/01 01:16:00;;;;;;;0.8;0.8;;;;;;;15.7;100.0;101250;;;;
2022/07/01 01:17:00;;;;;;;0.8;0.8;;;;;;;15.7;100.0;101250;;;;
2022/07/01 01:18:00;;;;;;;0.8;0.8;;;;;;;15.6;100.0;101260;;;;
2022/07/01 01:19:00;;;;;;;1.3;1.2;;;;;;;15.6;100.0;101260;;;;
2022/07/01 01:20:00;;;;;;;1.3;1.2;;;;;;;15.8;100.0;101270;;;;
2022/07/01 01:21:00;;;;;;;1.3;1.2;;;;;;;15.8;100.0;101270;;;;
2022/07/01 01:22:00;;;;;;;1.3;1.2;;;;;;;15.8;100.0;101270;;;;
2022/07/01 01:23:01;;;;;;;1.3;1.2;;;;;;;15.8;100.0;101270;;;;
2022/07/01 01:24:00;;;;;;;1.3;1.2;;;;;;;15.8;100.0;101280;;;;
2022/07/01 01:25:00;;;;;;;1.3;1.2;;;;;;;15.8;100.0;101280;;;;
2022/07/01 01:26:01;;;;;;;1.3;1.2;;;;;;;15.8;100.0;101280;;;;
2022/07/01 01:27:00;;;;;;;1.3;1.2;;;;;;;15.8;100.0;101280;;;;
2022/07/01 01:28:01;;;;;;;1.3;1.2;;;;;;;15.7;100.0;101290;;;;
2022/07/01 01:29:00;;;;;;;1.3;1.2;;;;;;;15.7;100.0;101290;;;;
2022/07/01 01:30:00;;;;;;;1.3;1.2;;;;;;;15.8;100.0;101280;;;;
2022/07/01 01:31:00;;;;;;;1.3;1.2;;;;;;;15.8;100.0;101280;;;;
2022/07/01 01:32:00;;;;;;;1.3;1.2;;;;;;;15.6;100.0;101290;;;;
2022/07/01 01:33:00;;;;;;;1.3;1.2;;;;;;;15.6;100.0;101290;;;;
2022/07/01 01:34:00;;;;;;;1.3;1.2;;;;;;;15.6;100.0;101290;;;;
2022/07/01 01:35:00;;;;;;;1.3;1.2;;;;;;;15.6;100.0;101290;;;;
2022/07/01 01:36:00;;;;;;;1.3;1.2;;;;;;;15.7;100.0;101290;;;;
2022/07/01 01:37:00;;;;;;;1.3;1.2;;;;;;;15.7;100.0;101290;;;;
2022/07/01 01:38:00;;;;;;;1.3;1.2;;;;;;;15.7;100.0;101290;;;;
2022/07/01 01:39:03;;;;;;;1.3;1.2;;;;;;;15.7;100.0;101290;;;;
2022/07/01 01:40:00;;;;;;;1.3;1.2;;;;;;;15.8;100.0;101290;;;;
2022/07/01 01:41:00;;;;;;;1.3;1.2;;;;;;;15.8;100.0;101290;;;;
2022/07/01 01:42:00;;;;;;;1.3;1.2;;;;;;;15.6;100.0;101290;;;;
2022/07/01 01:43:00;;;;;;;1.3;1.2;;;;;;;15.6;100.0;101290;;;;
2022/07/01 01:44:00;;;;;;;1.3;1.2;;;;;;;15.7;100.0;101280;;;;
2022/07/01 01:45:00;;;;;;;1.3;1.2;;;;;;;15.7;100.0;101280;;;;
2022/07/01 01:46:01;;;;;;;1.3;1.2;;;;;;;15.7;100.0;101270;;;;
2022/07/01 01:47:00;;;;;;;1.3;1.2;;;;;;;15.7;100.0;101270;;;;
2022/07/01 01:48:00;;;;;;;1.3;1.2;;;;;;;15.8;100.0;101280;;;;
2022/07/01 01:49:00;;;;;;;1.3;1.2;;;;;;;15.8;100.0;101280;;;;
2022/07/01 01:50:00;;;;;;;1.3;1.2;;;;;;;15.7;100.0;101290;;;;
2022/07/01 01:51:00;;;;;;;1.3;1.2;;;;;;;15.7;100.0;101290;;;;
2022/07/01 01:52:00;;;;;;;1.3;1.2;;;;;;;15.7;100.0;101300;;;;
2022/07/01 01:53:00;;;;;;;1.3;1.2;;;;;;;15.7;100.0;101300;;;;
2022/07/01 01:54:00;;;;;;;1.3;1.2;;;;;;;15.9;100.0;101300;;;;
2022/07/01 01:55:00;;;;;;;1.3;1.2;;;;;;;15.9;100.0;101300;;;;
2022/07/01 01:56:00;;;;;;;1.3;1.2;;;;;;;15.8;100.0;101300;;;;
2022/07/01 01:57:00;;;;;;;1.3;1.2;;;;;;;15.8;100.0;101300;;;;
2022/07/01 01:58:00;;;;;;;1.3;1.2;;;;;;;15.8;100.0;101290;;;;
2022/07/01 01:59:00;;;;;;;0.7;0.7;;;;;;;15.8;100.0;101290;;;;
2022/07/01 02:00:00;;;;;;;0.7;0.7;;;;;;;15.8;100.0;101280;;;;
2022/07/01 02:01:01;;;;;;;0.7;0.7;;;;;;;15.8;100.0;101280;;;;
2022/07/01 02:02:00;;;;;;;0.7;0.7;;;;;;;15.8;100.0;101280;;;;
2022/07/01 02:03:00;;;;;;;0.7;0.7;;;;;;;15.8;100.0;101280;;;;
2022/07/01 02:04:00;;;;;;;0.7;0.7;;;;;;;15.7;100.0;101280;;;;
2022/07/01 02:05:00;;;;;;;0.7;0.7;;;;;;;15.7;100.0;101280;;;;
2022/07/01 02:06:00;;;;;;;0.7;0.7;;;;;;;15.7;100.0;101280;;;;
2022/07/01 02:07:00;;;;;;;0.7;0.7;;;;;;;15.7;100.0;101280;;;;
2022/07/01 02:08:00;;;;;;;0.7;0.7;;;;;;;15.6;100.0;101270;;;;
2022/07/01 02:09:00;;;;;;;0.7;0.7;;;;;;;15.6;100.0;101270;;;;
2022/07/01 02:10:00;;;;;;;0.7;0.7;;;;;;;15.5;100.0;101280;;;;
2022/07/01 02:11:03;;;;;;;0.7;0.7;;;;;;;15.5;100.0;101280;;;;
2022/07/01 02:12:00;;;;;;;0.7;0.7;;;;;;;15.6;100.0;101290;;;;
2022/07/01 02:13:00;;;;;;;0.7;0.7;;;;;;;15.6;100.0;101290;;;;
2022/07/01 02:14:00;;;;;;;0.7;0.7;;;;;;;15.6;100.0;101290;;;;
2022/07/01 02:15:00;;;;;;;0.7;0.7;;;;;;;15.6;100.0;101290;;;;
2022/07/01 02:16:00;;;;;;;0.7;0.7;;;;;;;15.7;100.0;101280;;;;
2022/07/01 02:17:00;;;;;;;0.7;0.7;;;;;;;15.7;100.0;101280;;;;
2022/07/01 02:18:00;;;;;;;0.7;0.7;;;;;;;15.7;100.0;101280;;;;
2022/07/01 02:19:00;;;;;;;0.5;0.5;;;;;;;15.7;100.0;101280;;;;
2022/07/01 02:20:00;;;;;;;0.5;0.5;;;;;;;15.7;100.0;101290;;;;
2022/07/01 02:21:00;;;;;;;0.5;0.5;;;;;;;15.7;100.0;101290;;;;
2022/07/01 02:22:00;;;;;;;0.5;0.5;;;;;;;15.6;100.0;101300;;;;
2022/07/01 02:23:00;;;;;;;0.5;0.5;;;;;;;15.6;100.0;101300;;;;
2022/07/01 02:24:00;;;;;;;0.5;0.5;;;;;;;15.6;100.0;101300;;;;
2022/07/01 02:25:00;;;;;;;0.5;0.5;;;;;;;15.6;100.0;101300;;;;
2022/07/01 02:26:00;;;;;;;0.5;0.5;;;;;;;15.5;100.0;101300;;;;
2022/07/01 02:27:00;;;;;;;0.5;0.5;;;;;;;15.5;100.0;101300;;;;
2022/07/01 02:28:00;;;;;;;0.5;0.5;;;;;;;15.4;100.0;101300;;;;
2022/07/01 02:29:00;;;;;;;0.5;0.5;;;;;;;15.4;100.0;101300;;;;
2022/07/01 02:30:00;;;;;;;0.5;0.5;;;;;;;15.5;100.0;101310;;;;
2022/07/01 02:31:02;;;;;;;0.5;0.5;;;;;;;15.5;100.0;101310;;;;
2022/07/01 02:32:00;;;;;;;0.5;0.5;;;;;;;15.4;100.0;101320;;;;
2022/07/01 02:33:00;;;;;;;0.5;0.5;;;;;;;15.4;100.0;101320;;;;
2022/07/01 02:34:00;;;;;;;0.5;0.5;;;;;;;15.5;100.0;101310;;;;
2022/07/01 02:35:00;;;;;;;0.5;0.5;;;;;;;15.5;100.0;101310;;;;
2022/07/01 02:36:00;;;;;;;0.5;0.5;;;;;;;15.5;100.0;101300;;;;
2022/07/01 02:37:00;;;;;;;0.5;0.5;;;;;;;15.5;100.0;101300;;;;
2022/07/01 02:38:00;;;;;;;0.5;0.5;;;;;;;15.5;100.0;101300;;;;
2022/07/01 02:39:00;;;;;;;1.1;1.1;;;;;;;15.5;100.0;101300;;;;
2022/07/01 02:40:01;;;;;;;1.1;1.1;;;;;;;15.6;100.0;101300;;;;
2022/07/01 02:41:00;;;;;;;1.1;1.1;;;;;;;15.6;100.0;101300;;;;
2022/07/01 02:43:00;;;;;;;1.1;1.1;;;;;;;15.7;100.0;101290;;;;
2022/07/01 02:44:00;;;;;;;1.1;1.1;;;;;;;15.5;100.0;101290;;;;
2022/07/01 02:45:00;;;;;;;1.1;1.1;;;;;;;15.5;100.0;101290;;;;
2022/07/01 02:46:00;;;;;;;1.1;1.1;;;;;;;15.6;100.0;101280;;;;
2022/07/01 02:47:00;;;;;;;1.1;1.1;;;;;;;15.6;100.0;101280;;;;
2022/07/01 02:48:01;;;;;;;1.1;1.1;;;;;;;15.4;100.0;101280;;;;
2022/07/01 02:49:00;;;;;;;1.1;1.1;;;;;;;15.4;100.0;101280;;;;
2022/07/01 02:50:00;;;;;;;1.1;1.1;;;;;;;15.5;100.0;101280;;;;
2022/07/01 02:51:00;;;;;;;1.1;1.1;;;;;;;15.5;100.0;101280;;;;
2022/07/01 02:52:00;;;;;;;1.1;1.1;;;;;;;15.6;100.0;101280;;;;
2022/07/01 02:53:00;;;;;;;1.1;1.1;;;;;;;15.6;100.0;101280;;;;
2022/07/01 02:54:00;;;;;;;1.1;1.1;;;;;;;15.6;100.0;101280;;;;
2022/07/01 02:55:01;;;;;;;1.1;1.1;;;;;;;15.6;100.0;101280;;;;
2022/07/01 02:56:00;;;;;;;1.1;1.1;;;;;;;15.6;100.0;101290;;;;
2022/07/01 02:57:01;;;;;;;1.1;1.1;;;;;;;15.6;100.0;101290;;;;
2022/07/01 02:58:00;;;;;;;1.1;1.1;;;;;;;15.6;100.0;101290;;;;
2022/07/01 02:59:00;;;;;;;0.8;0.8;;;;;;;15.6;100.0;101290;;;;
2022/07/01 03:00:00;;;;;;;0.8;0.8;;;;;;;15.7;100.0;101290;;;;
2022/07/01 03:01:00;;;;;;;0.8;0.8;;;;;;;15.7;100.0;101290;;;;
2022/07/01 03:02:00;;;;;;;0.8;0.8;;;;;;;15.5;100.0;101300;;;;
2022/07/01 03:03:00;;;;;;;0.8;0.8;;;;;;;15.5;100.0;101300;;;;
2022/07/01 03:04:00;;;;;;;0.8;0.8;;;;;;;15.6;100.0;101310;;;;
2022/07/01 03:05:00;;;;;;;0.8;0.8;;;;;;;15.6;100.0;101310;;;;
2022/07/01 03:06:00;;;;;;;0.8;0.8;;;;;;;15.6;100.0;101320;;;;
2022/07/01 03:07:00;;;;;;;0.8;0.8;;;;;;;15.6;100.0;101320;;;;
2022/07/01 03:08:00;;;;;;;0.8;0.8;;;;;;;15.5;100.0;101320;;;;
2022/07/01 03:09:00;;;;;;;0.8;0.8;;;;;;;15.5;100.0;101320;;;;
2022/07/01 03:10:00;;;;;;;0.8;0.8;;;;;;;15.6;100.0;101330;;;;
2022/07/01 03:11:00;;;;;;;0.8;0.8;;;;;;;15.6;100.0;101330;;;;
2022/07/01 03:12:24;;;;;;;0.8;0.8;;;;;;;15.5;100.0;101320;;;;
2022/07/01 03:13:01;;;;;;;0.8;0.8;;;;;;;15.5;100.0;101320;;;;
2022/07/01 03:14:00;;;;;;;0.8;0.8;;;;;;;15.3;100.0;101320;;;;
2022/07/01 03:15:01;;;;;;;0.8;0.8;;;;;;;15.3;100.0;101320;;;;
2022/07/01 03:16:00;;;;;;;0.8;0.8;;;;;;;15.3;100.0;101310;;;;
2022/07/01 03:17:00;;;;;;;0.8;0.8;;;;;;;15.3;100.0;101310;;;;
2022/07/01 03:18:00;;;;;;;0.8;0.8;;;;;;;15.3;100.0;101320;;;;
2022/07/01 03:19:01;;;;;;;0.6;0.6;;;;;;;15.3;100.0;101320;;;;
2022/07/01 03:20:00;;;;;;;0.6;0.6;;;;;;;15.4;100.0;101320;;;;
2022/07/01 03:21:00;;;;;;;0.6;0.6;;;;;;;15.4;100.0;101320;;;;
2022/07/01 03:22:00;;;;;;;0.6;0.6;;;;;;;15.3;100.0;101330;;;;
2022/07/01 03:23:00;;;;;;;0.6;0.6;;;;;;;15.3;100.0;101330;;;;
2022/07/01 03:24:00;;;;;;;0.6;0.6;;;;;;;15.4;100.0;101330;;;;
2022/07/01 03:25:00;;;;;;;0.6;0.6;;;;;;;15.4;100.0;101330;;;;
2022/07/01 03:26:00;;;;;;;0.6;0.6;;;;;;;15.3;100.0;101330;;;;
2022/07/01 03:27:00;;;;;;;0.6;0.6;;;;;;;15.3;100.0;101330;;;;
2022/07/01 03:28:03;;;;;;;0.6;0.6;;;;;;;15.2;100.0;101320;;;;
2022/07/01 03:29:00;;;;;;;0.6;0.6;;;;;;;15.2;100.0;101320;;;;
2022/07/01 03:30:00;;;;;;;0.6;0.6;;;;;;;15.2;100.0;101320;;;;
2022/07/01 03:31:01;;;;;;;0.6;0.6;;;;;;;15.2;100.0;101320;;;;
2022/07/01 03:32:00;;;;;;;0.6;0.6;;;;;;;15.3;100.0;101320;;;;
2022/07/01 03:33:00;;;;;;;0.6;0.6;;;;;;;15.3;100.0;101320;;;;
2022/07/01 03:34:00;;;;;;;0.6;0.6;;;;;;;15.3;100.0;101330;;;;
2022/07/01 03:35:00;;;;;;;0.6;0.6;;;;;;;15.3;100.0;101330;;;;
2022/07/01 03:36:00;;;;;;;0.6;0.6;;;;;;;15.5;100.0;101340;;;;
2022/07/01 03:37:00;;;;;;;0.6;0.6;;;;;;;15.5;100.0;101340;;;;
2022/07/01 03:38:00;;;;;;;0.6;0.6;;;;;;;15.4;100.0;101340;;;;
2022/07/01 03:39:03;;;;;;;1.8;1.7;;;;;;;15.4;100.0;101340;;;;
2022/07/01 03:40:00;;;;;;;1.8;1.7;;;;;;;15.5;100.0;101350;;;;
2022/07/01 03:41:00;;;;;;;1.8;1.7;;;;;;;15.5;100.0;101350;;;;
2022/07/01 03:42:00;;;;;;;1.8;1.7;;;;;;;15.5;100.0;101350;;;;
2022/07/01 03:43:00;;;;;;;1.8;1.7;;;;;;;15.5;100.0;101350;;;;
2022/07/01 03:44:00;;;;;;;1.8;1.7;;;;;;;15.5;100.0;101340;;;;
2022/07/01 03:45:00;;;;;;;1.8;1.7;;;;;;;15.5;100.0;101340;;;;
2022/07/01 03:46:00;;;;;;;1.8;1.7;;;;;;;15.5;100.0;101340;;;;
2022/07/01 03:47:00;;;;;;;1.8;1.7;;;;;;;15.5;100.0;101340;;;;
2022/07/01 03:48:00;;;;;;;1.8;1.7;;;;;;;15.5;100.0;101340;;;;
2022/07/01 03:49:00;;;;;;;1.8;1.7;;;;;;;15.5;100.0;101340;;;;
2022/07/01 03:50:00;;;;;;;1.8;1.7;;;;;;;15.5;100.0;101340;;;;
2022/07/01 03:51:00;;;;;;;1.8;1.7;;;;;;;15.5;100.0;101340;;;;
2022/07/01 03:52:01;;;;;;;1.8;1.7;;;;;;;15.4;100.0;101350;;;;
2022/07/01 03:55:00;;;;;;;1.8;1.7;;;;;;;15.4;100.0;101360;;;;
2022/07/01 03:56:00;;;;;;;1.8;1.7;;;;;;;15.5;100.0;101370;;;;
2022/07/01 03:57:01;;;;;;;1.8;1.7;;;;;;;15.5;100.0;101370;;;;
2022/07/01 03:58:00;;;;;;;1.8;1.7;;;;;;;15.4;100.0;101370;;;;
2022/07/01 03:59:00;;;;;;;0.8;0.8;;;;;;;15.4;100.0;101370;;;;
2022/07/01 04:00:00;;;;;;;0.8;0.8;;;;;;;15.6;100.0;101360;;;;
2022/07/01 04:01:00;;;;;;;0.8;0.8;;;;;;;15.6;100.0;101360;;;;
2022/07/01 04:02:00;;;;;;;0.8;0.8;;;;;;;15.4;100.0;101370;;;;
2022/07/01 04:03:00;;;;;;;0.8;0.8;;;;;;;15.4;100.0;101370;;;;
2022/07/01 04:04:00;;;;;;;0.8;0.8;;;;;;;15.3;100.0;101370;;;;
2022/07/01 04:05:00;;;;;;;0.8;0.8;;;;;;;15.3;100.0;101370;;;;
2022/07/01 04:06:00;;;;;;;0.8;0.8;;;;;;;15.3;100.0;101370;;;;
2022/07/01 04:07:01;;;;;;;0.8;0.8;;;;;;;15.3;100.0;101370;;;;
2022/07/01 04:08:00;;;;;;;0.8;0.8;;;;;;;15.5;100.0;101370;;;;
2022/07/01 04:09:00;;;;;;;0.8;0.8;;;;;;;15.5;100.0;101370;;;;
2022/07/01 04:10:00;;;;;;;0.8;0.8;;;;;;;15.5;100.0;101370;;;;
2022/07/01 04:11:00;;;;;;;0.8;0.8;;;;;;;15.5;100.0;101370;;;;
2022/07/01 04:12:00;;;;;;;0.8;0.8;;;;;;;15.5;100.0;101370;;;;
2022/07/01 04:13:11;;;;;;;0.8;0.8;;;;;;;15.5;100.0;101370;;;;
2022/07/01 04:14:00;;;;;;;0.8;0.8;;;;;;;15.3;100.0;101370;;;;
2022/07/01 04:15:00;;;;;;;0.8;0.8;;;;;;;15.3;100.0;101370;;;;
2022/07/01 04:16:00;;;;;;;0.8;0.8;;;;;;;15.5;100.0;101380;;;;
2022/07/01 04:17:00;;;;;;;0.8;0.8;;;;;;;15.5;100.0;101380;;;;
2022/07/01 04:18:00;;;;;;;0.8;0.8;;;;;;;15.4;100.0;101380;;;;
2022/07/01 04:19:00;;;;;;;1.1;1.1;;;;;;;15.4;100.0;101380;;;;
2022/07/01 04:20:00;;;;;;;1.1;1.1;;;;;;;15.4;100.0;101380;;;;
2022/07/01 04:23:00;;;;;;;1.1;1.1;;;;;;;15.5;100.0;101380;;;;
2022/07/01 04:24:00;;;;;;;1.1;1.1;;;;;;;15.6;100.0;101380;;;;
2022/07/01 04:25:00;;;;;;;1.1;1.1;;;;;;;15.6;100.0;101380;;;;
2022/07/01 04:26:10;;;;;;;1.1;1.1;;;;;;;15.5;100.0;101380;;;;
2022/07/01 04:27:00;;;;;;;1.1;1.1;;;;;;;15.5;100.0;101380;;;;
2022/07/01 04:28:01;;;;;;;1.1;1.1;;;;;;;15.4;100.0;101370;;;;
2022/07/01 04:29:00;;;;;;;1.1;1.1;;;;;;;15.4;100.0;101370;;;;
2022/07/01 04:30:02;;;;;;;1.1;1.1;;;;;;;15.4;100.0;101370;;;;
2022/07/01 04:31:00;;;;;;;1.1;1.1;;;;;;;15.4;100.0;101370;;;;
2022/07/01 04:32:00;;;;;;;1.1;1.1;;;;;;;15.3;100.0;101360;;;;
2022/07/01 04:33:00;;;;;;;1.1;1.1;;;;;;;15.3;100.0;101360;;;;
2022/07/01 04:34:00;;;;;;;1.1;1.1;;;;;;;15.4;100.0;101360;;;;
2022/07/01 04:35:00;;;;;;;1.1;1.1;;;;;;;15.4;100.0;101360;;;;
2022/07/01 04:36:00;;;;;;;1.1;1.1;;;;;;;15.3;100.0;101360;;;;
2022/07/01 04:37:00;;;;;;;1.1;1.1;;;;;;;15.3;100.0;101360;;;;
2022/07/01 04:38:01;;;;;;;1.1;1.1;;;;;;;15.3;100.0;101370;;;;
2022/07/01 04:39:00;;;;;;;0.9;0.9;;;;;;;15.3;100.0;101370;;;;
2022/07/01 04:40:00;;;;;;;0.9;0.9;;;;;;;15.5;100.0;101370;;;;
2022/07/01 04:42:00;;;;;;;0.9;0.9;;;;;;;15.4;100.0;101380;;;;
2022/07/01 04:43:00;;;;;;;0.9;0.9;;;;;;;15.4;100.0;101380;;;;
2022/07/01 04:44:00;;;;;;;0.9;0.9;;;;;;;15.4;100.0;101380;;;;
2022/07/01 04:45:00;;;;;;;0.9;0.9;;;;;;;15.4;100.0;101380;;;;
2022/07/01 04:46:00;;;;;;;0.9;0.9;;;;;;;15.4;100.0;101380;;;;
2022/07/01 04:47:00;;;;;;;0.9;0.9;;;;;;;15.4;100.0;101380;;;;
2022/07/01 04:48:00;;;;;;;0.9;0.9;;;;;;;15.3;100.0;101380;;;;
2022/07/01 04:49:00;;;;;;;0.9;0.9;;;;;;;15.3;100.0;101380;;;;
2022/07/01 04:50:01;;;;;;;0.9;0.9;;;;;;;15.4;100.0;101380;;;;
2022/07/01 04:51:05;;;;;;;0.9;0.9;;;;;;;15.4;100.0;101380;;;;
2022/07/01 04:52:00;;;;;;;0.9;0.9;;;;;;;15.4;100.0;101390;;;;
2022/07/01 04:53:00;;;;;;;0.9;0.9;;;;;;;15.4;100.0;101390;;;;
2022/07/01 04:54:02;;;;;;;0.9;0.9;;;;;;;15.4;100.0;101380;;;;
2022/07/01 04:55:00;;;;;;;0.9;0.9;;;;;;;15.4;100.0;101380;;;;
2022/07/01 04:56:00;;;;;;;0.9;0.9;;;;;;;15.3;100.0;101390;;;;
2022/07/01 04:57:00;;;;;;;0.9;0.9;;;;;;;15.3;100.0;101390;;;;
2022/07/01 04:58:00;;;;;;;0.9;0.9;;;;;;;15.3;100.0;101390;;;;
2022/07/01 04:59:01;;;;;;;1.6;1.6;;;;;;;15.3;100.0;101390;;;;
2022/07/01 05:00:00;;;;;;;1.6;1.6;;;;;;;15.3;100.0;101390;;;;
2022/07/01 05:01:00;;;;;;;1.6;1.6;;;;;;;15.3;100.0;101390;;;;
2022/07/01 05:02:01;;;;;;;1.6;1.6;;;;;;;15.3;100.0;101390;;;;
2022/07/01 05:03:00;;;;;;;1.6;1.6;;;;;;;15.3;100.0;101390;;;;
2022/07/01 05:04:00;;;;;;;1.6;1.6;;;;;;;15.1;100.0;101390;;;;
2022/07/01 05:05:00;;;;;;;1.6;1.6;;;;;;;15.1;100.0;101390;;;;
2022/07/01 05:06:00;;;;;;;1.6;1.6;;;;;;;15.1;100.0;101390;;;;
2022/07/01 05:07:00;;;;;;;1.6;1.6;;;;;;;15.1;100.0;101390;;;;
2022/07/01 05:08:00;;;;;;;1.6;1.6;;;;;;;15.2;100.0;101380;;;;
2022/07/01 05:09:00;;;;;;;1.6;1.6;;;;;;;15.2;100.0;101380;;;;
2022/07/01 05:10:01;;;;;;;1.6;1.6;;;;;;;15.3;100.0;101380;;;;
2022/07/01 05:11:00;;;;;;;1.6;1.6;;;;;;;15.3;100.0;101380;;;;
2022/07/01 05:12:00;;;;;;;1.6;1.6;;;;;;;15.3;100.0;101380;;;;
2022/07/01 05:13:00;;;;;;;1.6;1.6;;;;;;;15.3;100.0;101380;;;;
2022/07/01 05:14:00;;;;;;;1.6;1.6;;;;;;;15.3;100.0;101380;;;;
2022/07/01 05:15:00;;;;;;;1.6;1.6;;;;;;;15.3;100.0;101380;;;;
2022/07/01 05:16:00;;;;;;;1.6;1.6;;;;;;;15.3;100.0;101380;;;;
2022/07/01 05:17:00;;;;;;;1.6;1.6;;;;;;;15.3;100.0;101380;;;;
2022/07/01 05:22:00;;;;;;;0.8;0.8;;;;;;;15.5;100.0;101380;;;;
2022/07/01 05:23:00;;;;;;;0.8;0.8;;;;;;;15.5;100.0;101380;;;;
2022/07/01 05:24:00;;;;;;;0.8;0.8;;;;;;;15.4;100.0;101380;;;;
2022/07/01 05:25:00;;;;;;;0.8;0.8;;;;;;;15.4;100.0;101380;;;;
2022/07/01 05:26:00;;;;;;;0.8;0.8;;;;;;;15.4;100.0;101380;;;;
2022/07/01 05:27:01;;;;;;;0.8;0.8;;;;;;;15.4;100.0;101380;;;;
2022/07/01 05:28:00;;;;;;;0.8;0.8;;;;;;;15.4;100.0;101380;;;;
2022/07/01 05:29:00;;;;;;;0.8;0.8;;;;;;;15.4;100.0;101380;;;;
2022/07/01 05:30:00;;;;;;;0.8;0.8;;;;;;;15.4;100.0;101370;;;;
2022/07/01 05:31:00;;;;;;;0.8;0.8;;;;;;;15.4;100.0;101370;;;;
2022/07/01 05:32:00;;;;;;;0.8;0.8;;;;;;;15.4;100.0;101380;;;;
2022/07/01 05:33:00;;;;;;;0.8;0.8;;;;;;;15.4;100.0;101380;;;;
2022/07/01 05:34:06;;;;;;;0.8;0.8;;;;;;;15.4;100.0;101370;;;;
2022/07/01 05:35:00;;;;;;;0.8;0.8;;;;;;;15.4;100.0;101370;;;;
2022/07/01 05:36:01;;;;;;;0.8;0.8;;;;;;;15.4;100.0;101370;;;;
2022/07/01 05:37:00;;;;;;;0.8;0.8;;;;;;;15.4;100.0;101370;;;;
2022/07/01 05:38:00;;;;;;;1.8;1.7;;;;;;;15.3;100.0;101370;;;;
2022/07/01 05:39:00;;;;;;;1.8;1.7;;;;;;;15.3;100.0;101370;;;;
2022/07/01 05:40:00;;;;;;;1.8;1.7;;;;;;;15.5;100.0;101370;;;;
2022/07/01 05:41:00;;;;;;;1.8;1.7;;;;;;;15.5;100.0;101370;;;;
2022/07/01 05:42:00;;;;;;;1.8;1.7;;;;;;;15.4;100.0;101370;;;;
2022/07/01 05:43:00;;;;;;;1.8;1.7;;;;;;;15.4;100.0;101370;;;;
2022/07/01 05:44:00;;;;;;;1.8;1.7;;;;;;;15.4;100.0;101380;;;;
2022/07/01 05:45:00;;;;;;;1.8;1.7;;;;;;;15.4;100.0;101380;;;;
2022/07/01 05:46:00;;;;;;;1.8;1.7;;;;;;;15.5;100.0;101380;;;;
2022/07/01 05:47:00;;;;;;;1.8;1.7;;;;;;;15.5;100.0;101380;;;;
2022/07/01 05:48:00;;;;;;;1.8;1.7;;;;;;;15.5;100.0;101380;;;;
2022/07/01 05:49:00;;;;;;;1.8;1.7;;;;;;;15.5;100.0;101380;;;;
2022/07/01 05:50:00;;;;;;;1.8;1.7;;;;;;;15.6;100.0;101390;;;;
2022/07/01 05:51:00;;;;;;;1.8;1.7;;;;;;;15.6;100.0;101390;;;;
2022/07/01 05:52:00;;;;;;;1.8;1.7;;;;;;;15.6;100.0;101400;;;;
2022/07/01 05:53:00;;;;;;;1.8;1.7;;;;;;;15.6;100.0;101400;;;;
2022/07/01 05:54:00;;;;;;;1.8;1.7;;;;;;;15.5;100.0;101390;;;;
2022/07/01 05:55:00;;;;;;;1.8;1.7;;;;;;;15.5;100.0;101390;;;;
2022/07/01 05:56:00;;;;;;;1.8;1.7;;;;;;;15.6;100.0;101390;;;;
2022/07/01 05:57:00;;;;;;;1.8;1.7;;;;;;;15.6;100.0;101390;;;;
2022/07/01 05:58:01;;;;;;;0.9;0.9;;;;;;;15.7;100.0;101390;;;;
2022/07/01 05:59:00;;;;;;;0.9;0.9;;;;;;;15.7;100.0;101390;;;;
2022/07/01 06:00:00;;;;;;;0.9;0.9;;;;;;;15.6;100.0;101390;;;;
2022/07/01 06:01:09;;;;;;;0.9;0.9;;;;;;;15.6;100.0;101390;;;;
2022/07/01 06:02:00;;;;;;;0.9;0.9;;;;;;;15.7;100.0;101400;;;;
2022/07/01 06:03:02;;;;;;;0.9;0.9;;;;;;;15.7;100.0;101400;;;;
2022/07/01 06:04:01;;;;;;;0.9;0.9;;;;;;;15.7;100.0;101400;;;;
2022/07/01 06:05:00;;;;;;;0.9;0.9;;;;;;;15.7;100.0;101400;;;;
2022/07/01 06:06:00;;;;;;;0.9;0.9;;;;;;;15.9;100.0;101400;;;;
2022/07/01 06:07:00;;;;;;;0.9;0.9;;;;;;;15.9;100.0;101400;;;;
2022/07/01 06:08:00;;;;;;;0.9;0.9;;;;;;;15.8;100.0;101400;;;;
2022/07/01 06:09:00;;;;;;;0.9;0.9;;;;;;;15.8;100.0;101400;;;;
2022/07/01 06:10:00;;;;;;;0.9;0.9;;;;;;;15.9;100.0;101390;;;;
2022/07/01 06:11:00;;;;;;;0.9;0.9;;;;;;;15.9;100.0;101390;;;;
2022/07/01 06:12:00;;;;;;;0.9;0.9;;;;;;;15.7;100.0;101390;;;;
2022/07/01 06:13:00;;;;;;;0.9;0.9;;;;;;;15.7;100.0;101390;;;;
2022/07/01 06:14:00;;;;;;;0.9;0.9;;;;;;;15.9;100.0;101390;;;;
2022/07/01 06:15:00;;;;;;;0.9;0.9;;;;;;;15.9;100.0;101390;;;;
2022/07/01 06:16:00;;;;;;;0.9;0.9;;;;;;;15.9;100.0;101390;;;;
2022/07/01 06:17:00;;;;;;;0.9;0.9;;;;;;;15.9;100.0;101390;;;;
2022/07/01 06:18:00;;;;;;;0.5;0.5;;;;;;;16.0;100.0;101390;;;;
2022/07/01 06:19:00;;;;;;;0.5;0.5;;;;;;;16.0;100.0;101390;;;;
2022/07/01 06:20:00;;;;;;;0.5;0.5;;;;;;;16.1;100.0;101390;;;;
2022/07/01 06:21:00;;;;;;;0.5;0.5;;;;;;;16.1;100.0;101390;;;;
2022/07/01 06:22:00;;;;;;;0.5;0.5;;;;;;;15.8;100.0;101390;;;;
2022/07/01 06:23:00;;;;;;;0.5;0.5;;;;;;;15.8;100.0;101390;;;;
2022/07/01 06:24:00;;;;;;;0.5;0.5;;;;;;;15.9;100.0;101390;;;;
2022/07/01 06:25:00;;;;;;;0.5;0.5;;;;;;;15.9;100.0;101390;;;;
2022/07/01 06:26:00;;;;;;;0.5;0.5;;;;;;;16.0;100.0;101390;;;;
2022/07/01 06:27:00;;;;;;;0.5;0.5;;;;;;;16.0;100.0;101390;;;;
2022/07/01 06:28:00;;;;;;;0.5;0.5;;;;;;;15.8;100.0;101390;;;;
2022/07/01 06:29:00;;;;;;;0.5;0.5;;;;;;;15.8;100.0;101390;;;;
2022/07/01 06:30:00;;;;;;;0.5;0.5;;;;;;;15.9;100.0;101390;;;;
2022/07/01 06:31:00;;;;;;;0.5;0.5;;;;;;;15.9;100.0;101390;;;;
2022/07/01 06:32:07;;;;;;;0.5;0.5;;;;;;;16.0;100.0;101380;;;;